createdAt,value
2022-08-31T00:00:15.618Z,20.00
2022-08-31T00:03:00.834Z,19.90
2022-08-31T00:05:28.274Z,19.90
2022-08-31T00:07:55.749Z,19.90
2022-08-31T00:10:32.843Z,19.90
2022-08-31T00:13:04.757Z,19.90
2022-08-31T00:15:34.634Z,19.90
2022-08-31T00:18:01.415Z,19.80
2022-08-31T00:20:33.090Z,19.90
2022-08-31T00:23:06.438Z,19.80
2022-08-31T00:25:34.607Z,19.80
2022-08-31T00:28:03.552Z,19.80
2022-08-31T00:30:31.314Z,19.80
2022-08-31T00:32:58.761Z,19.80
2022-08-31T00:35:27.482Z,19.70
2022-08-31T00:37:54.553Z,19.70
2022-08-31T00:40:21.868Z,19.70
2022-08-31T00:42:48.792Z,19.70
2022-08-31T00:45:16.137Z,19.70
2022-08-31T00:47:43.025Z,19.70
2022-08-31T00:50:12.688Z,19.60
2022-08-31T00:52:45.715Z,19.60
2022-08-31T00:55:17.766Z,19.60
2022-08-31T00:57:48.232Z,19.60
2022-08-31T01:00:18.707Z,19.60
2022-08-31T01:02:45.899Z,19.50
2022-08-31T01:05:13.616Z,19.50
2022-08-31T01:07:41.446Z,19.50
2022-08-31T01:10:09.922Z,19.50
2022-08-31T01:12:36.959Z,19.50
2022-08-31T01:15:06.643Z,19.50
2022-08-31T01:17:35.011Z,19.50
2022-08-31T01:20:32.657Z,19.50
2022-08-31T01:23:38.706Z,19.50
2022-08-31T01:26:07.059Z,19.40
2022-08-31T01:28:33.787Z,19.40
2022-08-31T01:31:18.817Z,19.40
2022-08-31T01:33:45.549Z,19.40
2022-08-31T01:36:16.076Z,19.30
2022-08-31T01:38:44.005Z,19.40
2022-08-31T01:41:13.082Z,19.30
2022-08-31T01:43:41.267Z,19.30
2022-08-31T01:46:12.597Z,19.30
2022-08-31T01:48:41.758Z,19.30
2022-08-31T01:51:12.354Z,19.30
2022-08-31T01:53:40.195Z,19.20
2022-08-31T01:56:13.750Z,19.20
2022-08-31T01:58:40.855Z,19.20
2022-08-31T02:01:15.585Z,19.20
2022-08-31T02:03:57.057Z,19.20
2022-08-31T02:06:25.234Z,19.20
2022-08-31T02:08:51.953Z,19.20
2022-08-31T02:11:19.103Z,19.20
2022-08-31T02:13:45.833Z,19.20
2022-08-31T02:16:12.514Z,19.20
2022-08-31T02:18:39.230Z,19.10
2022-08-31T02:21:06.251Z,19.20
2022-08-31T02:23:33.100Z,19.20
2022-08-31T02:26:00.489Z,19.20
2022-08-31T02:28:27.214Z,19.20
2022-08-31T02:30:54.188Z,19.20
2022-08-31T02:33:21.007Z,19.20
2022-08-31T02:35:50.295Z,19.20
2022-08-31T02:38:22.856Z,19.20
2022-08-31T02:40:51.190Z,19.10
2022-08-31T02:43:24.407Z,19.10
2022-08-31T02:45:53.602Z,19.10
2022-08-31T02:48:21.538Z,19.10
2022-08-31T02:50:51.489Z,19.10
2022-08-31T02:53:20.761Z,19.10
2022-08-31T02:55:47.833Z,19.10
2022-08-31T02:58:15.199Z,19.10
2022-08-31T03:00:47.052Z,19.10
2022-08-31T03:03:14.879Z,19.10
2022-08-31T03:05:42.262Z,19.10
2022-08-31T03:08:09.239Z,19.10
2022-08-31T03:10:36.228Z,19.10
2022-08-31T03:13:03.364Z,19.10
2022-08-31T03:15:30.214Z,19.10
2022-08-31T03:17:57.521Z,19.00
2022-08-31T03:20:26.601Z,19.00
2022-08-31T03:22:53.434Z,19.00
2022-08-31T03:25:20.162Z,18.90
2022-08-31T03:27:47.055Z,18.90
2022-08-31T03:30:17.483Z,18.80
2022-08-31T03:32:45.445Z,18.80
2022-08-31T03:35:12.891Z,18.70
2022-08-31T03:37:39.634Z,18.70
2022-08-31T03:40:08.491Z,18.70
2022-08-31T03:42:35.268Z,18.70
2022-08-31T03:45:02.963Z,18.70
2022-08-31T03:47:29.657Z,18.70
2022-08-31T03:49:57.892Z,18.70
2022-08-31T03:52:24.692Z,18.60
2022-08-31T03:54:51.338Z,18.60
2022-08-31T03:57:18.028Z,18.50
2022-08-31T03:59:44.693Z,18.50
2022-08-31T04:02:11.418Z,18.50
2022-08-31T04:04:38.194Z,18.50
2022-08-31T04:07:04.980Z,18.50
2022-08-31T04:09:31.654Z,18.50
2022-08-31T04:11:58.331Z,18.40
2022-08-31T04:14:24.996Z,18.40
2022-08-31T04:16:51.647Z,18.40
2022-08-31T04:19:20.059Z,18.40
2022-08-31T04:21:47.557Z,18.30
2022-08-31T04:24:14.283Z,18.40
2022-08-31T04:26:42.263Z,18.40
2022-08-31T04:29:13.008Z,18.40
2022-08-31T04:31:40.604Z,18.30
2022-08-31T04:34:08.529Z,18.30
2022-08-31T04:36:35.386Z,18.30
2022-08-31T04:39:04.030Z,18.20
2022-08-31T04:41:32.886Z,18.20
2022-08-31T04:44:01.728Z,18.20
2022-08-31T04:46:29.431Z,18.20
2022-08-31T04:48:57.420Z,18.10
2022-08-31T04:51:26.965Z,18.10
2022-08-31T04:53:54.486Z,18.10
2022-08-31T04:56:24.691Z,18.00
2022-08-31T04:58:54.132Z,18.00
2022-08-31T05:01:25.887Z,18.00
2022-08-31T05:03:55.695Z,18.00
2022-08-31T05:06:25.648Z,18.00
2022-08-31T05:08:55.714Z,18.00
2022-08-31T05:11:25.059Z,18.00
2022-08-31T05:13:52.734Z,18.00
2022-08-31T05:16:21.102Z,18.00
2022-08-31T05:18:49.821Z,18.00
2022-08-31T05:21:19.307Z,18.00
2022-08-31T05:23:48.681Z,17.90
2022-08-31T05:26:24.770Z,17.90
2022-08-31T05:28:53.662Z,17.90
2022-08-31T05:31:21.090Z,17.90
2022-08-31T05:33:47.877Z,17.90
2022-08-31T05:36:14.934Z,17.90
2022-08-31T05:38:42.369Z,17.90
2022-08-31T05:41:10.130Z,17.90
2022-08-31T05:43:38.381Z,17.80
2022-08-31T05:46:10.324Z,17.90
2022-08-31T05:48:37.893Z,17.90
2022-08-31T05:51:06.949Z,17.90
2022-08-31T05:53:34.582Z,17.90
2022-08-31T05:56:09.907Z,17.90
2022-08-31T05:58:38.641Z,17.90
2022-08-31T06:01:23.510Z,17.90
2022-08-31T06:03:50.652Z,17.90
2022-08-31T06:06:17.802Z,17.90
2022-08-31T06:08:44.699Z,17.90
2022-08-31T06:11:15.719Z,17.90
2022-08-31T06:13:42.651Z,18.00
2022-08-31T06:16:09.789Z,18.00
2022-08-31T06:18:41.079Z,18.00
2022-08-31T06:21:10.687Z,17.90
2022-08-31T06:23:37.632Z,17.90
2022-08-31T06:26:13.121Z,18.00
2022-08-31T06:28:40.656Z,18.00
2022-08-31T06:31:20.064Z,18.00
2022-08-31T06:33:47.454Z,18.00
2022-08-31T06:36:16.997Z,18.00
2022-08-31T06:38:44.706Z,18.00
2022-08-31T06:41:17.729Z,18.10
2022-08-31T06:43:45.679Z,18.10
2022-08-31T06:46:14.164Z,18.10
2022-08-31T06:48:41.521Z,18.20
2022-08-31T06:51:09.886Z,18.20
2022-08-31T06:53:40.168Z,18.20
2022-08-31T06:56:20.552Z,18.20
2022-08-31T06:58:53.493Z,18.20
2022-08-31T07:01:35.367Z,18.30
2022-08-31T07:04:05.475Z,18.30
2022-08-31T07:06:40.852Z,18.30
2022-08-31T07:09:10.630Z,18.30
2022-08-31T07:11:44.381Z,18.30
2022-08-31T07:14:13.700Z,18.30
2022-08-31T07:16:41.712Z,18.30
2022-08-31T07:19:08.897Z,18.40
2022-08-31T07:21:47.878Z,18.40
2022-08-31T07:24:17.967Z,18.40
2022-08-31T07:26:48.551Z,18.50
2022-08-31T07:29:18.223Z,18.40
2022-08-31T07:31:48.383Z,18.50
2022-08-31T07:34:16.533Z,18.50
2022-08-31T07:37:02.912Z,18.60
2022-08-31T07:39:48.587Z,18.60
2022-08-31T07:42:18.675Z,18.60
2022-08-31T07:44:53.266Z,18.70
2022-08-31T07:47:22.578Z,18.70
2022-08-31T07:49:52.550Z,18.80
2022-08-31T07:52:23.691Z,18.80
2022-08-31T07:54:52.219Z,18.90
2022-08-31T07:57:20.204Z,18.90
2022-08-31T07:59:47.139Z,19.00
2022-08-31T08:02:17.674Z,19.00
2022-08-31T08:04:44.981Z,19.00
2022-08-31T08:07:12.796Z,19.10
2022-08-31T08:09:39.523Z,19.20
2022-08-31T08:12:07.388Z,19.20
2022-08-31T08:14:36.071Z,19.20
2022-08-31T08:17:04.768Z,19.30
2022-08-31T08:19:33.705Z,19.30
2022-08-31T08:22:02.858Z,19.40
2022-08-31T08:24:31.655Z,19.40
2022-08-31T08:26:59.144Z,19.50
2022-08-31T08:29:27.359Z,19.60
2022-08-31T08:31:54.580Z,19.70
2022-08-31T08:34:32.145Z,19.70
2022-08-31T08:36:59.892Z,19.80
2022-08-31T08:39:27.358Z,19.90
2022-08-31T08:41:57.808Z,20.00
2022-08-31T08:44:28.524Z,20.10
2022-08-31T08:47:01.104Z,20.20
2022-08-31T08:49:40.392Z,20.30
2022-08-31T08:52:27.803Z,20.40
2022-08-31T08:54:56.635Z,20.50
2022-08-31T08:57:39.740Z,20.60
2022-08-31T09:00:24.842Z,20.60
2022-08-31T09:02:57.991Z,20.70
2022-08-31T09:05:47.500Z,20.80
2022-08-31T09:08:23.325Z,20.80
2022-08-31T09:11:06.634Z,20.80
2022-08-31T09:13:53.078Z,20.90
2022-08-31T09:16:26.039Z,20.90
2022-08-31T09:19:02.295Z,21.00
2022-08-31T09:21:39.146Z,21.10
2022-08-31T09:24:21.258Z,21.20
2022-08-31T09:27:04.989Z,21.20
2022-08-31T09:29:34.429Z,21.30
2022-08-31T09:32:09.849Z,21.40
2022-08-31T09:34:40.014Z,21.50
2022-08-31T09:37:26.913Z,21.60
2022-08-31T09:39:54.648Z,21.70
2022-08-31T09:42:31.583Z,21.70
2022-08-31T09:45:18.256Z,21.80
2022-08-31T09:47:56.060Z,21.90
2022-08-31T09:50:32.692Z,22.00
2022-08-31T09:53:38.160Z,22.10
2022-08-31T09:56:13.865Z,22.10
2022-08-31T09:58:43.016Z,22.20
2022-08-31T10:01:29.914Z,22.20
2022-08-31T10:04:18.000Z,22.30
2022-08-31T10:07:14.061Z,22.30
2022-08-31T10:10:28.418Z,22.40
2022-08-31T10:13:22.822Z,22.40
2022-08-31T10:16:11.902Z,22.50
2022-08-31T10:19:14.372Z,22.50
2022-08-31T10:21:54.992Z,22.60
2022-08-31T10:24:33.249Z,22.60
2022-08-31T10:27:16.812Z,22.70
2022-08-31T10:30:07.481Z,22.80
2022-08-31T10:32:40.326Z,22.80
2022-08-31T10:35:20.413Z,22.90
2022-08-31T10:38:24.035Z,23.00
2022-08-31T10:41:11.652Z,23.10
2022-08-31T10:44:04.375Z,23.20
2022-08-31T10:46:34.514Z,23.30
2022-08-31T10:49:06.192Z,23.40
2022-08-31T10:51:40.985Z,23.50
2022-08-31T10:54:29.561Z,23.70
2022-08-31T10:57:05.199Z,23.90
2022-08-31T10:59:37.865Z,24.00
2022-08-31T11:02:07.293Z,24.20
2022-08-31T11:04:52.218Z,24.40
2022-08-31T11:07:33.955Z,24.50
2022-08-31T11:10:20.961Z,24.60
2022-08-31T11:12:55.110Z,24.60
2022-08-31T11:15:44.435Z,24.70
2022-08-31T11:18:13.951Z,24.80
2022-08-31T11:21:17.789Z,24.90
2022-08-31T11:23:58.937Z,25.00
2022-08-31T11:27:03.500Z,25.10
2022-08-31T11:29:34.436Z,25.10
2022-08-31T11:32:22.262Z,25.20
2022-08-31T11:34:55.232Z,25.20
2022-08-31T11:37:52.471Z,25.30
2022-08-31T11:40:43.664Z,25.40
2022-08-31T11:43:29.331Z,25.50
2022-08-31T11:45:56.220Z,25.60
2022-08-31T11:48:54.568Z,25.70
2022-08-31T11:51:44.776Z,25.90
2022-08-31T11:54:26.645Z,26.00
2022-08-31T11:56:56.785Z,26.10
2022-08-31T11:59:40.804Z,26.10
2022-08-31T12:02:19.772Z,26.20
2022-08-31T12:04:47.406Z,26.30
2022-08-31T12:07:26.519Z,26.30
2022-08-31T12:10:15.818Z,26.30
2022-08-31T12:12:55.141Z,26.20
2022-08-31T12:16:00.614Z,26.20
2022-08-31T12:18:47.747Z,26.30
2022-08-31T12:21:48.322Z,26.30
2022-08-31T12:24:27.077Z,26.30
2022-08-31T12:27:35.744Z,26.40
2022-08-31T12:30:28.648Z,26.30
2022-08-31T12:33:01.583Z,26.30
2022-08-31T12:35:31.597Z,26.30
2022-08-31T12:38:10.550Z,26.30
2022-08-31T12:40:51.421Z,26.30
2022-08-31T12:43:21.102Z,26.30
2022-08-31T12:46:12.548Z,26.20
2022-08-31T12:48:53.730Z,26.20
2022-08-31T12:51:32.283Z,26.10
2022-08-31T12:54:13.616Z,26.10
2022-08-31T12:56:52.394Z,26.10
2022-08-31T12:59:57.365Z,26.20
2022-08-31T13:02:24.793Z,26.20
2022-08-31T13:04:51.951Z,26.20
2022-08-31T13:07:32.033Z,26.40
2022-08-31T13:10:12.800Z,26.50
2022-08-31T13:12:40.126Z,26.80
2022-08-31T13:15:20.515Z,26.90
2022-08-31T13:17:47.447Z,27.10
2022-08-31T13:20:19.079Z,27.30
2022-08-31T13:22:48.819Z,27.40
2022-08-31T13:25:36.719Z,27.50
2022-08-31T13:28:03.602Z,27.60
2022-08-31T13:30:34.187Z,27.70
2022-08-31T13:33:12.842Z,27.80
2022-08-31T13:35:49.654Z,27.90
2022-08-31T13:38:17.456Z,28.00
2022-08-31T13:40:51.907Z,28.00
2022-08-31T13:43:27.935Z,28.00
2022-08-31T13:46:00.874Z,27.90
2022-08-31T13:48:34.256Z,27.90
2022-08-31T13:51:13.425Z,27.80
2022-08-31T13:54:05.915Z,27.80
2022-08-31T13:56:51.011Z,27.80
2022-08-31T13:59:23.093Z,27.90
2022-08-31T14:01:59.151Z,28.00
2022-08-31T14:04:44.168Z,28.10
2022-08-31T14:07:17.061Z,28.20
2022-08-31T14:09:45.985Z,28.40
2022-08-31T14:12:31.072Z,28.60
2022-08-31T14:14:59.490Z,28.80
2022-08-31T14:17:26.516Z,28.90
2022-08-31T14:19:53.240Z,29.00
2022-08-31T14:22:35.428Z,29.00
2022-08-31T14:25:03.348Z,29.10
2022-08-31T14:27:30.341Z,29.10
2022-08-31T14:29:58.249Z,29.20
2022-08-31T14:32:25.719Z,29.20
2022-08-31T14:34:53.270Z,29.30
2022-08-31T14:37:20.402Z,29.40
2022-08-31T14:39:55.093Z,29.50
2022-08-31T14:42:31.488Z,29.60
2022-08-31T14:45:00.632Z,29.70
2022-08-31T14:47:29.980Z,29.80
2022-08-31T14:50:05.282Z,29.80
2022-08-31T14:52:37.169Z,29.90
2022-08-31T14:55:09.152Z,30.10
2022-08-31T14:57:38.538Z,30.20
2022-08-31T15:00:06.968Z,30.20
2022-08-31T15:02:34.919Z,30.30
2022-08-31T15:05:06.919Z,30.40
2022-08-31T15:07:37.646Z,30.40
2022-08-31T15:10:07.592Z,30.50
2022-08-31T15:12:35.350Z,30.70
2022-08-31T15:15:02.160Z,30.80
2022-08-31T15:17:33.788Z,30.90
2022-08-31T15:20:03.500Z,31.00
2022-08-31T15:22:31.373Z,31.10
2022-08-31T15:24:58.351Z,31.20
2022-08-31T15:27:28.555Z,31.20
2022-08-31T15:29:57.159Z,31.10
2022-08-31T15:32:23.838Z,31.10
2022-08-31T15:34:57.959Z,31.00
2022-08-31T15:37:32.137Z,31.00
2022-08-31T15:40:01.043Z,30.90
2022-08-31T15:42:29.544Z,30.80
2022-08-31T15:44:56.969Z,30.70
2022-08-31T15:47:49.894Z,30.70
2022-08-31T15:50:19.286Z,30.60
2022-08-31T15:52:51.249Z,30.60
2022-08-31T15:55:26.280Z,30.60
2022-08-31T15:57:58.354Z,30.50
2022-08-31T16:00:27.757Z,30.50
2022-08-31T16:02:57.120Z,30.60
2022-08-31T16:05:28.121Z,30.60
2022-08-31T16:07:55.622Z,30.70
2022-08-31T16:10:23.496Z,30.70
2022-08-31T16:12:51.981Z,30.80
2022-08-31T16:15:22.198Z,30.80
2022-08-31T16:17:51.294Z,30.90
2022-08-31T16:20:18.040Z,31.00
2022-08-31T16:22:45.365Z,31.00
2022-08-31T16:25:14.066Z,31.00
2022-08-31T16:27:43.280Z,31.00
2022-08-31T16:30:11.863Z,30.90
2022-08-31T16:32:38.702Z,30.80
2022-08-31T16:35:06.380Z,30.70
2022-08-31T16:37:33.960Z,30.50
2022-08-31T16:40:00.876Z,30.40
2022-08-31T16:42:28.012Z,30.20
2022-08-31T16:44:59.778Z,30.10
2022-08-31T16:47:29.007Z,29.90
2022-08-31T16:49:55.779Z,29.80
2022-08-31T16:52:26.514Z,29.60
2022-08-31T16:54:55.843Z,29.40
2022-08-31T16:57:27.415Z,29.30
2022-08-31T16:59:55.942Z,29.20
2022-08-31T17:02:24.127Z,29.00
2022-08-31T17:04:53.469Z,29.00
2022-08-31T17:07:23.050Z,28.90
2022-08-31T17:09:50.400Z,28.90
2022-08-31T17:12:20.810Z,28.80
2022-08-31T17:14:52.104Z,28.60
2022-08-31T17:17:21.984Z,28.50
2022-08-31T17:19:49.199Z,28.40
2022-08-31T17:22:24.456Z,28.30
2022-08-31T17:24:56.499Z,28.20
2022-08-31T17:27:24.623Z,28.10
2022-08-31T17:29:52.656Z,28.00
2022-08-31T17:32:22.615Z,27.90
2022-08-31T17:34:51.576Z,27.70
2022-08-31T17:37:26.804Z,27.60
2022-08-31T17:39:55.100Z,27.40
2022-08-31T17:42:26.601Z,27.30
2022-08-31T17:44:53.460Z,27.20
2022-08-31T17:47:22.249Z,27.00
2022-08-31T17:49:52.538Z,26.90
2022-08-31T17:52:23.642Z,26.80
2022-08-31T17:54:51.241Z,26.70
2022-08-31T17:57:22.185Z,26.50
2022-08-31T17:59:49.292Z,26.40
2022-08-31T18:02:26.476Z,26.20
2022-08-31T18:04:55.903Z,26.10
2022-08-31T18:07:23.011Z,26.00
2022-08-31T18:09:49.789Z,25.90
2022-08-31T18:12:17.980Z,25.80
2022-08-31T18:14:44.874Z,25.70
2022-08-31T18:17:16.058Z,25.60
2022-08-31T18:19:45.831Z,25.40
2022-08-31T18:22:14.441Z,25.30
2022-08-31T18:24:42.503Z,25.20
2022-08-31T18:27:11.181Z,25.10
2022-08-31T18:29:39.375Z,25.00
2022-08-31T18:32:07.976Z,24.90
2022-08-31T18:34:44.016Z,24.80
2022-08-31T18:37:12.854Z,24.80
2022-08-31T18:40:00.085Z,24.60
2022-08-31T18:42:45.635Z,24.60
2022-08-31T18:45:15.592Z,24.50
2022-08-31T18:47:42.638Z,24.40
2022-08-31T18:50:09.956Z,24.30
2022-08-31T18:52:40.114Z,24.10
2022-08-31T18:55:07.724Z,24.00
2022-08-31T18:57:48.839Z,23.90
2022-08-31T19:00:17.683Z,23.80
2022-08-31T19:02:47.420Z,23.80
2022-08-31T19:05:15.857Z,23.70
2022-08-31T19:07:43.051Z,23.60
2022-08-31T19:10:13.067Z,23.50
2022-08-31T19:12:42.556Z,23.50
2022-08-31T19:15:11.534Z,23.40
2022-08-31T19:17:42.135Z,23.30
2022-08-31T19:20:10.737Z,23.20
2022-08-31T19:22:38.354Z,23.20
2022-08-31T19:25:07.594Z,23.10
2022-08-31T19:27:35.248Z,23.00
2022-08-31T19:30:05.959Z,22.90
2022-08-31T19:32:33.579Z,22.90
2022-08-31T19:35:00.346Z,22.80
2022-08-31T19:37:27.628Z,22.80
2022-08-31T19:39:54.417Z,22.70
2022-08-31T19:42:39.799Z,22.70
2022-08-31T19:45:24.273Z,22.60
2022-08-31T19:47:51.397Z,22.50
2022-08-31T19:50:18.271Z,22.40
2022-08-31T19:52:45.504Z,22.40
2022-08-31T19:55:12.388Z,22.30
2022-08-31T19:57:39.835Z,22.20
2022-08-31T20:00:10.083Z,22.20
2022-08-31T20:02:37.242Z,22.10
2022-08-31T20:05:06.243Z,22.10
2022-08-31T20:07:35.808Z,22.00
2022-08-31T20:10:04.043Z,21.90
2022-08-31T20:12:30.753Z,21.90
2022-08-31T20:14:57.604Z,21.80
2022-08-31T20:17:24.327Z,21.70
2022-08-31T20:19:54.815Z,21.70
2022-08-31T20:22:23.841Z,21.60
2022-08-31T20:24:55.602Z,21.50
2022-08-31T20:27:22.382Z,21.50
2022-08-31T20:29:49.118Z,21.40
2022-08-31T20:32:15.845Z,21.40
2022-08-31T20:34:43.471Z,21.30
2022-08-31T20:37:10.668Z,21.30
2022-08-31T20:39:39.255Z,21.30
2022-08-31T20:42:07.652Z,21.20
2022-08-31T20:44:36.413Z,21.10
2022-08-31T20:47:25.923Z,21.10
2022-08-31T20:49:58.064Z,21.00
2022-08-31T20:52:31.702Z,21.00
2022-08-31T20:55:02.321Z,20.90
2022-08-31T20:57:33.904Z,20.90
2022-08-31T21:00:04.802Z,20.80
2022-08-31T21:02:31.921Z,20.70
2022-08-31T21:05:10.421Z,20.60
2022-08-31T21:07:42.264Z,20.60
2022-08-31T21:10:15.556Z,20.50
2022-08-31T21:12:42.823Z,20.40
2022-08-31T21:15:10.104Z,20.40
2022-08-31T21:17:36.939Z,20.30
2022-08-31T21:20:05.682Z,20.20
2022-08-31T21:22:34.992Z,20.20
2022-08-31T21:25:04.320Z,20.10
2022-08-31T21:27:31.121Z,20.00
2022-08-31T21:29:58.000Z,19.90
2022-08-31T21:32:24.676Z,19.90
2022-08-31T21:34:56.489Z,19.80
2022-08-31T21:37:23.465Z,19.70
2022-08-31T21:39:53.433Z,19.70
2022-08-31T21:42:22.463Z,19.60
2022-08-31T21:44:49.243Z,19.50
2022-08-31T21:47:15.967Z,19.50
2022-08-31T21:49:44.318Z,19.40
2022-08-31T21:52:12.331Z,19.30
2022-08-31T21:54:44.664Z,19.30
2022-08-31T21:57:12.801Z,19.20
2022-08-31T21:59:39.746Z,19.10
2022-08-31T22:02:11.093Z,19.10
2022-08-31T22:04:41.138Z,19.00
2022-08-31T22:07:08.476Z,19.00
2022-08-31T22:09:36.283Z,18.90
2022-08-31T22:12:06.499Z,18.80
2022-08-31T22:14:38.534Z,18.80
2022-08-31T22:17:06.829Z,18.70
2022-08-31T22:19:37.949Z,18.60
2022-08-31T22:22:12.113Z,18.60
2022-08-31T22:24:41.173Z,18.50
2022-08-31T22:27:09.807Z,18.50
2022-08-31T22:29:38.451Z,18.40
2022-08-31T22:32:09.089Z,18.40
2022-08-31T22:34:38.765Z,18.30
2022-08-31T22:37:06.859Z,18.30
2022-08-31T22:39:33.795Z,18.20
2022-08-31T22:42:04.899Z,18.10
2022-08-31T22:44:34.309Z,18.10
2022-08-31T22:47:03.399Z,18.00
2022-08-31T22:49:30.889Z,18.00
2022-08-31T22:51:57.741Z,17.90
2022-08-31T22:54:24.982Z,17.90
2022-08-31T22:56:52.038Z,17.80
2022-08-31T22:59:26.018Z,17.80
2022-08-31T23:01:59.735Z,17.70
2022-08-31T23:04:28.176Z,17.70
2022-08-31T23:06:57.365Z,17.60
2022-08-31T23:09:27.692Z,17.60
2022-08-31T23:11:56.466Z,17.60
2022-08-31T23:14:23.852Z,17.50
2022-08-31T23:16:57.790Z,17.50
2022-08-31T23:19:30.490Z,17.40
2022-08-31T23:21:58.199Z,17.30
2022-08-31T23:24:29.378Z,17.30
2022-08-31T23:27:01.596Z,17.20
2022-08-31T23:29:32.250Z,17.20
2022-08-31T23:32:00.866Z,17.10
2022-08-31T23:34:27.579Z,17.00
2022-08-31T23:36:55.546Z,17.00
2022-08-31T23:39:24.347Z,16.90
2022-08-31T23:41:53.278Z,16.90
2022-08-31T23:44:21.067Z,16.80
2022-08-31T23:46:49.086Z,16.80
2022-08-31T23:49:19.124Z,16.80
2022-08-31T23:51:46.557Z,16.70
2022-08-31T23:54:15.614Z,16.70
2022-08-31T23:56:45.903Z,16.70
2022-08-31T23:59:17.553Z,16.60
